createdAt,value
2019-06-26T00:00:36.669Z,20.20
2019-06-26T00:05:41.394Z,20.20
2019-06-26T00:10:45.935Z,20.10
2019-06-26T00:15:50.438Z,20.00
2019-06-26T00:20:55.084Z,20.10
2019-06-26T00:25:59.711Z,20.00
2019-06-26T00:31:04.269Z,20.00
2019-06-26T00:36:08.834Z,20.00
2019-06-26T00:41:13.342Z,19.80
2019-06-26T00:46:17.985Z,19.80
2019-06-26T00:51:22.546Z,19.90
2019-06-26T00:56:27.220Z,19.80
2019-06-26T01:01:31.840Z,19.70
2019-06-26T01:06:45.371Z,19.60
2019-06-26T01:11:49.868Z,19.60
2019-06-26T01:16:54.540Z,19.60
2019-06-26T01:21:59.167Z,19.50
2019-06-26T01:27:03.801Z,19.50
2019-06-26T01:32:08.237Z,19.50
2019-06-26T01:37:12.733Z,19.30
2019-06-26T01:42:17.157Z,19.40
2019-06-26T01:47:21.732Z,19.40
2019-06-26T01:52:26.322Z,19.30
2019-06-26T01:57:30.856Z,19.30
2019-06-26T02:02:35.286Z,19.20
2019-06-26T02:07:40.004Z,19.30
2019-06-26T02:12:44.594Z,19.20
2019-06-26T02:17:49.161Z,19.20
2019-06-26T02:22:53.729Z,19.10
2019-06-26T02:27:58.219Z,19.20
2019-06-26T02:33:02.641Z,19.10
2019-06-26T02:38:07.138Z,19.00
2019-06-26T02:43:11.768Z,19.00
2019-06-26T02:48:16.400Z,19.00
2019-06-26T02:53:20.883Z,19.10
2019-06-26T02:58:25.521Z,19.00
2019-06-26T03:03:30.616Z,19.00
2019-06-26T03:08:35.033Z,19.10
2019-06-26T03:13:39.589Z,19.00
2019-06-26T03:18:44.171Z,19.00
2019-06-26T03:23:48.705Z,19.00
2019-06-26T03:28:53.347Z,19.10
2019-06-26T03:33:57.914Z,19.10
2019-06-26T03:39:02.313Z,19.10
2019-06-26T03:44:06.794Z,19.20
2019-06-26T03:49:11.279Z,19.20
2019-06-26T03:54:16.439Z,19.30
2019-06-26T03:59:20.997Z,19.30
2019-06-26T04:04:25.569Z,19.50
2019-06-26T04:09:30.041Z,19.50
2019-06-26T04:14:34.523Z,19.60
2019-06-26T04:19:39.359Z,19.70
2019-06-26T04:24:43.849Z,19.80
2019-06-26T04:29:48.423Z,19.90
2019-06-26T04:34:54.561Z,20.00
2019-06-26T04:39:59.204Z,20.10
2019-06-26T04:45:05.461Z,20.20
2019-06-26T04:50:11.769Z,20.40
2019-06-26T04:55:16.380Z,20.50
2019-06-26T05:00:21.986Z,20.80
2019-06-26T05:05:38.879Z,21.00
2019-06-26T05:10:32.793Z,21.10
2019-06-26T05:15:37.472Z,21.20
2019-06-26T05:20:42.050Z,21.30
2019-06-26T05:25:46.501Z,21.40
2019-06-26T05:30:51.005Z,21.50
2019-06-26T05:35:55.662Z,21.80
2019-06-26T05:41:00.149Z,22.30
2019-06-26T05:46:04.854Z,22.40
2019-06-26T05:51:09.442Z,22.60
2019-06-26T05:56:13.962Z,22.70
2019-06-26T06:01:18.518Z,23.10
2019-06-26T06:06:23.093Z,23.80
2019-06-26T06:11:27.571Z,23.80
2019-06-26T06:16:46.426Z,24.00
2019-06-26T06:21:38.462Z,24.20
2019-06-26T06:26:42.864Z,24.20
2019-06-26T06:31:47.355Z,24.50
2019-06-26T06:36:51.919Z,24.80
2019-06-26T06:41:56.364Z,24.90
2019-06-26T06:47:04.285Z,25.00
2019-06-26T06:52:07.294Z,25.30
2019-06-26T06:57:11.780Z,25.40
2019-06-26T07:02:16.362Z,25.80
2019-06-26T07:07:20.975Z,25.70
2019-06-26T07:12:25.763Z,25.80
2019-06-26T07:17:30.409Z,26.20
2019-06-26T07:22:35.027Z,26.30
2019-06-26T07:27:39.595Z,26.20
2019-06-26T07:32:44.226Z,26.30
2019-06-26T07:37:48.707Z,26.70
2019-06-26T07:42:53.288Z,26.90
2019-06-26T07:47:57.689Z,27.00
2019-06-26T07:53:02.274Z,27.30
2019-06-26T07:58:06.959Z,27.60
2019-06-26T08:03:11.438Z,27.80
2019-06-26T08:08:15.920Z,28.00
2019-06-26T08:13:20.344Z,28.40
2019-06-26T08:18:24.897Z,28.60
2019-06-26T08:23:29.525Z,28.80
2019-06-26T08:28:33.942Z,29.10
2019-06-26T08:33:38.505Z,29.10
2019-06-26T08:38:42.924Z,29.30
2019-06-26T08:43:47.745Z,29.50
2019-06-26T08:48:53.157Z,29.60
2019-06-26T08:53:57.709Z,29.70
2019-06-26T08:59:02.264Z,29.80
2019-06-26T09:04:06.901Z,29.70
2019-06-26T09:09:11.373Z,29.50
2019-06-26T09:14:16.005Z,29.90
2019-06-26T09:19:20.639Z,30.00
2019-06-26T09:24:25.044Z,30.90
2019-06-26T09:29:31.334Z,31.10
2019-06-26T09:34:35.907Z,30.90
2019-06-26T09:39:40.341Z,31.30
2019-06-26T09:44:44.912Z,30.60
2019-06-26T09:49:52.759Z,30.00
2019-06-26T09:54:57.365Z,30.20
2019-06-26T10:00:01.958Z,30.20
2019-06-26T10:05:10.266Z,30.20
2019-06-26T10:10:16.574Z,30.20
2019-06-26T10:15:21.264Z,30.50
2019-06-26T10:20:25.903Z,30.40
2019-06-26T10:25:30.433Z,30.50
2019-06-26T10:30:35.032Z,30.20
2019-06-26T10:35:39.462Z,30.50
2019-06-26T10:40:44.034Z,30.10
2019-06-26T10:45:48.634Z,30.20
2019-06-26T10:50:58.555Z,30.40
2019-06-26T10:55:59.492Z,30.40
2019-06-26T11:01:04.124Z,30.40
2019-06-26T11:06:08.737Z,30.50
2019-06-26T11:11:13.226Z,30.60
2019-06-26T11:16:17.862Z,30.90
2019-06-26T11:21:22.410Z,30.70
2019-06-26T11:26:26.973Z,30.80
2019-06-26T11:31:31.445Z,30.90
2019-06-26T11:36:36.015Z,30.60
2019-06-26T11:41:40.992Z,30.60
2019-06-26T11:46:45.501Z,30.60
2019-06-26T11:51:51.588Z,30.30
2019-06-26T11:56:56.221Z,30.60
2019-06-26T12:02:00.688Z,30.80
2019-06-26T12:07:05.358Z,30.40
2019-06-26T12:12:09.936Z,30.30
2019-06-26T12:17:14.407Z,30.90
2019-06-26T12:22:19.033Z,30.60
2019-06-26T12:27:23.550Z,30.30
2019-06-26T12:32:28.112Z,30.50
2019-06-26T12:37:37.670Z,30.70
2019-06-26T12:42:39.018Z,30.70
2019-06-26T12:47:43.550Z,29.90
2019-06-26T12:52:48.181Z,29.50
2019-06-26T12:57:52.767Z,29.70
2019-06-26T13:02:57.274Z,30.30
2019-06-26T13:08:01.822Z,30.30
2019-06-26T13:13:06.494Z,30.30
2019-06-26T13:18:11.388Z,30.10
2019-06-26T13:23:16.171Z,30.10
2019-06-26T13:28:20.708Z,30.00
2019-06-26T13:33:25.147Z,29.60
2019-06-26T13:38:29.772Z,29.50
2019-06-26T13:43:34.409Z,29.10
2019-06-26T13:48:38.889Z,28.80
2019-06-26T13:53:43.508Z,29.20
2019-06-26T13:58:48.031Z,29.40
2019-06-26T14:03:52.586Z,28.90
2019-06-26T14:08:57.202Z,29.20
2019-06-26T14:14:01.856Z,29.50
2019-06-26T14:19:06.561Z,29.10
2019-06-26T14:24:11.044Z,29.40
2019-06-26T14:29:20.815Z,29.10
2019-06-26T14:34:21.739Z,28.60
2019-06-26T14:39:26.299Z,28.30
2019-06-26T14:44:30.850Z,28.50
2019-06-26T14:49:36.400Z,28.20
2019-06-26T14:54:40.785Z,28.20
2019-06-26T14:59:45.269Z,28.30
2019-06-26T15:04:50.944Z,28.10
2019-06-26T15:09:55.409Z,27.50
2019-06-26T15:15:00.046Z,27.70
2019-06-26T15:20:05.687Z,27.90
2019-06-26T15:25:10.626Z,27.20
2019-06-26T15:30:17.106Z,27.60
2019-06-26T15:35:22.012Z,27.60
2019-06-26T15:40:26.501Z,27.10
2019-06-26T15:45:31.082Z,27.20
2019-06-26T15:50:35.878Z,26.60
2019-06-26T15:55:40.916Z,26.10
2019-06-26T16:00:47.064Z,26.40
2019-06-26T16:05:51.537Z,25.70
2019-06-26T16:10:56.073Z,25.80
2019-06-26T16:16:00.493Z,25.30
2019-06-26T16:21:05.129Z,25.10
2019-06-26T16:26:09.614Z,24.70
2019-06-26T16:31:14.102Z,24.50
2019-06-26T16:36:18.676Z,24.10
2019-06-26T16:41:23.160Z,23.70
2019-06-26T16:46:27.791Z,23.30
2019-06-26T16:51:32.366Z,22.60
2019-06-26T16:56:37.883Z,22.50
2019-06-26T17:01:42.369Z,22.70
2019-06-26T17:06:46.870Z,22.50
2019-06-26T17:11:51.528Z,21.90
2019-06-26T17:16:58.255Z,22.00
2019-06-26T17:22:02.750Z,21.70
2019-06-26T17:27:08.503Z,21.30
2019-06-26T17:32:12.969Z,21.10
2019-06-26T17:37:17.507Z,20.80
2019-06-26T17:42:22.074Z,21.10
2019-06-26T17:47:26.561Z,20.80
2019-06-26T17:52:35.623Z,20.80
2019-06-26T17:57:38.289Z,20.40
2019-06-26T18:02:43.337Z,20.10
2019-06-26T18:07:47.982Z,20.00
2019-06-26T18:12:52.500Z,19.50
2019-06-26T18:17:57.136Z,19.40
2019-06-26T18:23:07.483Z,19.20
2019-06-26T18:28:08.942Z,19.40
2019-06-26T18:33:14.710Z,19.40
2019-06-26T18:38:19.161Z,19.20
2019-06-26T18:43:23.657Z,19.30
2019-06-26T18:48:28.146Z,19.00
2019-06-26T18:53:32.778Z,19.10
2019-06-26T18:58:37.455Z,19.10
2019-06-26T19:03:41.890Z,18.90
2019-06-26T19:08:46.415Z,18.90
2019-06-26T19:13:51.330Z,18.70
2019-06-26T19:18:57.203Z,18.90
2019-06-26T19:24:10.098Z,18.50
2019-06-26T19:29:08.122Z,18.50
2019-06-26T19:34:12.606Z,18.40
2019-06-26T19:39:20.546Z,18.00
2019-06-26T19:44:23.629Z,17.90
2019-06-26T19:49:28.251Z,17.60
2019-06-26T19:54:32.730Z,17.60
2019-06-26T19:59:37.705Z,17.80
2019-06-26T20:04:42.184Z,17.70
2019-06-26T20:09:46.597Z,17.50
2019-06-26T20:14:51.039Z,17.40
2019-06-26T20:19:55.609Z,17.40
2019-06-26T20:25:00.280Z,17.10
2019-06-26T20:30:09.603Z,17.00
2019-06-26T20:35:12.566Z,17.20
2019-06-26T20:40:17.296Z,17.00
2019-06-26T20:45:21.804Z,17.00
2019-06-26T20:50:26.203Z,17.10
2019-06-26T20:55:30.763Z,16.60
2019-06-26T21:00:35.328Z,16.60
2019-06-26T21:05:39.843Z,16.50
2019-06-26T21:10:44.389Z,16.60
2019-06-26T21:15:48.845Z,16.60
2019-06-26T21:20:53.387Z,16.60
2019-06-26T21:25:57.849Z,16.50
2019-06-26T21:31:02.473Z,16.50
2019-06-26T21:36:07.207Z,16.40
2019-06-26T21:41:11.908Z,16.40
2019-06-26T21:46:16.337Z,16.30
2019-06-26T21:51:20.895Z,16.30
2019-06-26T21:56:25.676Z,16.20
2019-06-26T22:01:30.673Z,16.00
2019-06-26T22:06:35.992Z,16.00
2019-06-26T22:11:40.601Z,15.80
2019-06-26T22:16:45.159Z,15.80
2019-06-26T22:21:49.782Z,15.50
2019-06-26T22:26:54.349Z,15.40
2019-06-26T22:31:58.926Z,15.30
2019-06-26T22:37:03.492Z,15.10
2019-06-26T22:42:07.983Z,15.00
2019-06-26T22:47:12.540Z,15.00
2019-06-26T22:52:17.102Z,14.80
2019-06-26T22:57:21.654Z,14.80
2019-06-26T23:02:26.087Z,14.80
2019-06-26T23:07:30.520Z,14.80
2019-06-26T23:12:35.077Z,14.70
2019-06-26T23:17:39.590Z,14.80
2019-06-26T23:22:44.153Z,14.80
2019-06-26T23:27:48.655Z,14.80
2019-06-26T23:32:53.142Z,14.70
2019-06-26T23:37:57.588Z,14.70
2019-06-26T23:43:02.105Z,14.80
2019-06-26T23:48:06.612Z,14.80
2019-06-26T23:53:11.111Z,14.80
2019-06-26T23:58:15.682Z,14.70
